sensor_id;sensor_type;location;lat;lon;timestamp;temperature;humidity
16243;DHT22;11719;51.052;6.982;2023-04-01T00:03:29;14.00;99.90
16243;DHT22;11719;51.052;6.982;2023-04-01T00:05:57;13.90;99.90
16243;DHT22;11719;51.052;6.982;2023-04-01T00:08:24;13.80;99.90
16243;DHT22;11719;51.052;6.982;2023-04-01T00:10:52;13.90;99.90
16243;DHT22;11719;51.052;6.982;2023-04-01T00:13:19;13.80;99.90
16243;DHT22;11719;51.052;6.982;2023-04-01T00:15:45;13.90;99.90
16243;DHT22;11719;51.052;6.982;2023-04-01T00:18:12;13.90;99.90
16243;DHT22;11719;51.052;6.982;2023-04-01T00:20:38;13.80;99.90
16243;DHT22;11719;51.052;6.982;2023-04-01T00:23:04;13.90;99.90
16243;DHT22;11719;51.052;6.982;2023-04-01T00:25:30;13.90;99.90
16243;DHT22;11719;51.052;6.982;2023-04-01T00:27:56;14.00;99.90
16243;DHT22;11719;51.052;6.982;2023-04-01T00:30:22;14.00;99.90
16243;DHT22;11719;51.052;6.982;2023-04-01T00:32:51;14.00;99.90
16243;DHT22;11719;51.052;6.982;2023-04-01T00:35:18;13.90;99.90
16243;DHT22;11719;51.052;6.982;2023-04-01T00:37:44;13.90;99.90
16243;DHT22;11719;51.052;6.982;2023-04-01T00:40:44;14.00;99.90
16243;DHT22;11719;51.052;6.982;2023-04-01T00:43:18;14.10;99.90
16243;DHT22;11719;51.052;6.982;2023-04-01T00:45:47;14.10;99.90
16243;DHT22;11719;51.052;6.982;2023-04-01T00:48:17;14.00;99.90
16243;DHT22;11719;51.052;6.982;2023-04-01T00:50:50;14.00;99.90
16243;DHT22;11719;51.052;6.982;2023-04-01T00:53:19;14.00;99.90
16243;DHT22;11719;51.052;6.982;2023-04-01T00:55:58;14.00;99.90
16243;DHT22;11719;51.052;6.982;2023-04-01T00:58:31;14.00;99.90
16243;DHT22;11719;51.052;6.982;2023-04-01T01:01:00;14.00;99.90
16243;DHT22;11719;51.052;6.982;2023-04-01T01:03:27;14.10;99.90
16243;DHT22;11719;51.052;6.982;2023-04-01T01:06:24;14.10;99.90
16243;DHT22;11719;51.052;6.982;2023-04-01T01:27:15;13.90;99.90
16243;DHT22;11719;51.052;6.982;2023-04-01T01:30:04;14.00;99.90
16243;DHT22;11719;51.052;6.982;2023-04-01T01:33:01;13.90;99.90
16243;DHT22;11719;51.052;6.982;2023-04-01T01:35:53;13.90;99.90
16243;DHT22;11719;51.052;6.982;2023-04-01T01:38:27;14.10;99.90
16243;DHT22;11719;51.052;6.982;2023-04-01T01:40:55;14.00;99.90
16243;DHT22;11719;51.052;6.982;2023-04-01T01:43:30;13.90;99.90
16243;DHT22;11719;51.052;6.982;2023-04-01T01:46:03;13.80;99.90
16243;DHT22;11719;51.052;6.982;2023-04-01T01:48:34;13.70;99.90
16243;DHT22;11719;51.052;6.982;2023-04-01T01:51:01;13.70;99.90
16243;DHT22;11719;51.052;6.982;2023-04-01T01:53:28;13.70;99.90
16243;DHT22;11719;51.052;6.982;2023-04-01T01:55:54;13.70;99.90
16243;DHT22;11719;51.052;6.982;2023-04-01T01:58:25;13.60;99.90
16243;DHT22;11719;51.052;6.982;2023-04-01T02:00:57;13.70;99.90
16243;DHT22;11719;51.052;6.982;2023-04-01T02:03:31;13.80;99.90
16243;DHT22;11719;51.052;6.982;2023-04-01T02:06:00;13.80;99.90
16243;DHT22;11719;51.052;6.982;2023-04-01T02:08:34;13.90;99.90
16243;DHT22;11719;51.052;6.982;2023-04-01T02:11:09;13.90;99.90
16243;DHT22;11719;51.052;6.982;2023-04-01T02:13:57;13.80;99.90
16243;DHT22;11719;51.052;6.982;2023-04-01T02:17:22;13.80;99.90
16243;DHT22;11719;51.052;6.982;2023-04-01T02:19:36;13.60;99.90
16243;DHT22;11719;51.052;6.982;2023-04-01T02:22:08;13.70;99.90
16243;DHT22;11719;51.052;6.982;2023-04-01T02:24:37;13.60;99.90
16243;DHT22;11719;51.052;6.982;2023-04-01T02:27:04;13.60;99.90
16243;DHT22;11719;51.052;6.982;2023-04-01T02:29:30;13.50;99.90
16243;DHT22;11719;51.052;6.982;2023-04-01T02:31:56;13.60;99.90
16243;DHT22;11719;51.052;6.982;2023-04-01T02:34:24;13.50;99.90
16243;DHT22;11719;51.052;6.982;2023-04-01T02:36:51;13.60;99.90
16243;DHT22;11719;51.052;6.982;2023-04-01T02:39:18;13.60;99.90
16243;DHT22;11719;51.052;6.982;2023-04-01T02:41:45;13.60;99.90
16243;DHT22;11719;51.052;6.982;2023-04-01T02:44:12;13.60;99.90
16243;DHT22;11719;51.052;6.982;2023-04-01T02:46:40;13.50;99.90
16243;DHT22;11719;51.052;6.982;2023-04-01T02:49:06;13.60;99.90
16243;DHT22;11719;51.052;6.982;2023-04-01T02:51:32;13.50;99.90
16243;DHT22;11719;51.052;6.982;2023-04-01T02:53:59;13.60;99.90
16243;DHT22;11719;51.052;6.982;2023-04-01T02:56:25;13.50;99.90
16243;DHT22;11719;51.052;6.982;2023-04-01T02:58:51;13.40;99.90
16243;DHT22;11719;51.052;6.982;2023-04-01T03:01:18;13.40;99.90
16243;DHT22;11719;51.052;6.982;2023-04-01T03:03:44;13.40;99.90
16243;DHT22;11719;51.052;6.982;2023-04-01T03:06:12;13.50;99.90
16243;DHT22;11719;51.052;6.982;2023-04-01T03:08:39;13.50;99.90
16243;DHT22;11719;51.052;6.982;2023-04-01T03:11:05;13.40;99.90
16243;DHT22;11719;51.052;6.982;2023-04-01T03:13:31;13.40;99.90
16243;DHT22;11719;51.052;6.982;2023-04-01T03:15:57;13.40;99.90
16243;DHT22;11719;51.052;6.982;2023-04-01T03:18:23;13.40;99.90
16243;DHT22;11719;51.052;6.982;2023-04-01T03:20:49;13.40;99.90
16243;DHT22;11719;51.052;6.982;2023-04-01T03:23:15;13.40;99.90
16243;DHT22;11719;51.052;6.982;2023-04-01T03:25:42;13.30;99.90
16243;DHT22;11719;51.052;6.982;2023-04-01T03:28:08;13.30;99.90
16243;DHT22;11719;51.052;6.982;2023-04-01T03:30:35;13.40;99.90
16243;DHT22;11719;51.052;6.982;2023-04-01T03:33:02;13.40;99.90
16243;DHT22;11719;51.052;6.982;2023-04-01T03:35:28;13.40;99.90
16243;DHT22;11719;51.052;6.982;2023-04-01T03:37:54;13.50;99.90
16243;DHT22;11719;51.052;6.982;2023-04-01T03:40:21;13.40;99.90
16243;DHT22;11719;51.052;6.982;2023-04-01T03:42:47;13.40;99.90
16243;DHT22;11719;51.052;6.982;2023-04-01T03:45:13;13.40;99.90
16243;DHT22;11719;51.052;6.982;2023-04-01T03:47:39;13.40;99.90
16243;DHT22;11719;51.052;6.982;2023-04-01T03:50:06;13.40;99.90
16243;DHT22;11719;51.052;6.982;2023-04-01T03:52:33;13.40;99.90
16243;DHT22;11719;51.052;6.982;2023-04-01T03:55:01;13.30;99.90
16243;DHT22;11719;51.052;6.982;2023-04-01T03:57:27;13.30;99.90
16243;DHT22;11719;51.052;6.982;2023-04-01T03:59:53;13.30;99.90
16243;DHT22;11719;51.052;6.982;2023-04-01T04:02:19;13.30;99.90
16243;DHT22;11719;51.052;6.982;2023-04-01T04:04:45;13.30;99.90
16243;DHT22;11719;51.052;6.982;2023-04-01T04:07:12;13.30;99.90
16243;DHT22;11719;51.052;6.982;2023-04-01T04:09:38;13.40;99.90
16243;DHT22;11719;51.052;6.982;2023-04-01T04:12:04;13.50;99.90
16243;DHT22;11719;51.052;6.982;2023-04-01T04:14:31;13.40;99.90
16243;DHT22;11719;51.052;6.982;2023-04-01T04:16:57;13.40;99.90
16243;DHT22;11719;51.052;6.982;2023-04-01T04:19:23;13.60;99.90
16243;DHT22;11719;51.052;6.982;2023-04-01T04:21:49;13.60;99.90
16243;DHT22;11719;51.052;6.982;2023-04-01T04:24:15;13.50;99.90
16243;DHT22;11719;51.052;6.982;2023-04-01T04:26:41;13.40;99.90
16243;DHT22;11719;51.052;6.982;2023-04-01T04:29:06;13.40;99.90
16243;DHT22;11719;51.052;6.982;2023-04-01T04:31:32;13.40;99.90
16243;DHT22;11719;51.052;6.982;2023-04-01T04:33:59;13.40;99.90
16243;DHT22;11719;51.052;6.982;2023-04-01T04:36:28;13.30;99.90
16243;DHT22;11719;51.052;6.982;2023-04-01T04:38:54;13.30;99.90
16243;DHT22;11719;51.052;6.982;2023-04-01T04:41:20;13.20;99.90
16243;DHT22;11719;51.052;6.982;2023-04-01T04:43:55;13.20;99.90
16243;DHT22;11719;51.052;6.982;2023-04-01T04:46:22;13.30;99.90
16243;DHT22;11719;51.052;6.982;2023-04-01T04:48:48;13.30;99.90
16243;DHT22;11719;51.052;6.982;2023-04-01T04:51:16;13.30;99.90
16243;DHT22;11719;51.052;6.982;2023-04-01T04:53:44;13.30;99.90
16243;DHT22;11719;51.052;6.982;2023-04-01T04:56:10;13.20;99.90
16243;DHT22;11719;51.052;6.982;2023-04-01T04:58:37;13.20;99.90
16243;DHT22;11719;51.052;6.982;2023-04-01T05:01:12;13.20;99.90
16243;DHT22;11719;51.052;6.982;2023-04-01T05:03:39;13.20;99.90
16243;DHT22;11719;51.052;6.982;2023-04-01T05:06:06;13.10;99.90
16243;DHT22;11719;51.052;6.982;2023-04-01T05:08:33;13.20;99.90
16243;DHT22;11719;51.052;6.982;2023-04-01T05:10:59;13.30;99.90
16243;DHT22;11719;51.052;6.982;2023-04-01T05:13:26;13.20;99.90
16243;DHT22;11719;51.052;6.982;2023-04-01T05:15:52;13.20;99.90
16243;DHT22;11719;51.052;6.982;2023-04-01T05:18:18;13.20;99.90
16243;DHT22;11719;51.052;6.982;2023-04-01T05:20:51;13.20;99.90
16243;DHT22;11719;51.052;6.982;2023-04-01T05:23:19;13.10;99.90
16243;DHT22;11719;51.052;6.982;2023-04-01T05:25:50;13.10;99.90
16243;DHT22;11719;51.052;6.982;2023-04-01T05:28:18;13.00;99.90
16243;DHT22;11719;51.052;6.982;2023-04-01T05:30:45;13.20;99.90
16243;DHT22;11719;51.052;6.982;2023-04-01T05:33:12;13.20;99.90
16243;DHT22;11719;51.052;6.982;2023-04-01T05:35:38;13.10;99.90
16243;DHT22;11719;51.052;6.982;2023-04-01T05:38:05;13.10;99.90
16243;DHT22;11719;51.052;6.982;2023-04-01T05:40:31;13.10;99.90
16243;DHT22;11719;51.052;6.982;2023-04-01T05:42:58;13.10;99.90
16243;DHT22;11719;51.052;6.982;2023-04-01T05:45:25;13.20;99.90
16243;DHT22;11719;51.052;6.982;2023-04-01T05:47:51;13.20;99.90
16243;DHT22;11719;51.052;6.982;2023-04-01T05:50:16;13.10;99.90
16243;DHT22;11719;51.052;6.982;2023-04-01T05:52:42;13.20;99.90
16243;DHT22;11719;51.052;6.982;2023-04-01T05:55:08;13.20;99.90
16243;DHT22;11719;51.052;6.982;2023-04-01T05:57:34;13.40;99.90
16243;DHT22;11719;51.052;6.982;2023-04-01T06:00:00;13.30;99.90
16243;DHT22;11719;51.052;6.982;2023-04-01T06:02:26;13.30;99.90
16243;DHT22;11719;51.052;6.982;2023-04-01T06:05:26;13.40;99.90
16243;DHT22;11719;51.052;6.982;2023-04-01T06:07:59;13.30;99.90
16243;DHT22;11719;51.052;6.982;2023-04-01T06:15:53;13.30;99.90
16243;DHT22;11719;51.052;6.982;2023-04-01T06:38:54;13.50;99.90
16243;DHT22;11719;51.052;6.982;2023-04-01T06:44:27;13.40;99.90
16243;DHT22;11719;51.052;6.982;2023-04-01T06:50:24;13.30;99.90
16243;DHT22;11719;51.052;6.982;2023-04-01T06:56:02;13.40;99.90
16243;DHT22;11719;51.052;6.982;2023-04-01T06:58:41;13.40;99.90
16243;DHT22;11719;51.052;6.982;2023-04-01T07:01:15;13.40;99.90
16243;DHT22;11719;51.052;6.982;2023-04-01T07:08:59;13.50;99.90
16243;DHT22;11719;51.052;6.982;2023-04-01T07:11:34;13.60;99.90
16243;DHT22;11719;51.052;6.982;2023-04-01T07:16:59;13.50;99.90
16243;DHT22;11719;51.052;6.982;2023-04-01T07:19:57;13.60;99.90
16243;DHT22;11719;51.052;6.982;2023-04-01T07:22:45;13.60;99.90
16243;DHT22;11719;51.052;6.982;2023-04-01T07:25:15;13.70;99.90
16243;DHT22;11719;51.052;6.982;2023-04-01T07:27:44;13.70;99.90
16243;DHT22;11719;51.052;6.982;2023-04-01T07:30:17;13.60;99.90
16243;DHT22;11719;51.052;6.982;2023-04-01T07:33:25;13.50;99.90
16243;DHT22;11719;51.052;6.982;2023-04-01T07:39:21;13.60;99.90
16243;DHT22;11719;51.052;6.982;2023-04-01T07:52:59;13.80;99.90
16243;DHT22;11719;51.052;6.982;2023-04-01T07:55:58;13.90;99.90
16243;DHT22;11719;51.052;6.982;2023-04-01T08:02:01;14.20;99.90
16243;DHT22;11719;51.052;6.982;2023-04-01T08:08:13;14.20;99.90
16243;DHT22;11719;51.052;6.982;2023-04-01T08:16:35;14.20;99.90
16243;DHT22;11719;51.052;6.982;2023-04-01T08:22:18;14.00;99.90
16243;DHT22;11719;51.052;6.982;2023-04-01T08:24:48;13.90;99.90
16243;DHT22;11719;51.052;6.982;2023-04-01T08:27:23;13.90;99.90
16243;DHT22;11719;51.052;6.982;2023-04-01T08:30:24;14.00;99.90
16243;DHT22;11719;51.052;6.982;2023-04-01T08:38:32;14.00;99.90
16243;DHT22;11719;51.052;6.982;2023-04-01T08:41:27;13.90;99.90
16243;DHT22;11719;51.052;6.982;2023-04-01T08:51:00;14.10;99.90
16243;DHT22;11719;51.052;6.982;2023-04-01T08:56:34;14.20;99.90
16243;DHT22;11719;51.052;6.982;2023-04-01T09:01:57;14.20;99.90
16243;DHT22;11719;51.052;6.982;2023-04-01T09:11:06;14.10;99.90
16243;DHT22;11719;51.052;6.982;2023-04-01T09:17:23;13.90;99.90
16243;DHT22;11719;51.052;6.982;2023-04-01T09:26:49;14.00;99.90
16243;DHT22;11719;51.052;6.982;2023-04-01T09:44:18;13.70;99.90
16243;DHT22;11719;51.052;6.982;2023-04-01T09:49:55;13.70;99.90
16243;DHT22;11719;51.052;6.982;2023-04-01T10:09:48;13.60;99.90
16243;DHT22;11719;51.052;6.982;2023-04-01T10:26:44;14.00;99.90
16243;DHT22;11719;51.052;6.982;2023-04-01T10:34:56;14.10;99.90
16243;DHT22;11719;51.052;6.982;2023-04-01T10:56:56;14.10;99.90
16243;DHT22;11719;51.052;6.982;2023-04-01T10:59:45;13.90;99.90
16243;DHT22;11719;51.052;6.982;2023-04-01T11:02:38;14.10;99.90
16243;DHT22;11719;51.052;6.982;2023-04-01T11:22:47;14.20;99.90
16243;DHT22;11719;51.052;6.982;2023-04-01T11:25:40;14.20;99.90
16243;DHT22;11719;51.052;6.982;2023-04-01T11:31:58;14.40;99.90
16243;DHT22;11719;51.052;6.982;2023-04-01T11:40:35;14.40;99.90
16243;DHT22;11719;51.052;6.982;2023-04-01T12:00:53;14.30;99.90
16243;DHT22;11719;51.052;6.982;2023-04-01T12:20:30;14.50;99.90
16243;DHT22;11719;51.052;6.982;2023-04-01T12:23:28;14.60;99.90
16243;DHT22;11719;51.052;6.982;2023-04-01T12:32:45;14.40;99.90
16243;DHT22;11719;51.052;6.982;2023-04-01T12:48:22;14.40;99.90
16243;DHT22;11719;51.052;6.982;2023-04-01T12:51:20;14.40;99.90
16243;DHT22;11719;51.052;6.982;2023-04-01T12:57:10;14.50;99.90
16243;DHT22;11719;51.052;6.982;2023-04-01T13:18:11;14.40;99.90
16243;DHT22;11719;51.052;6.982;2023-04-01T13:26:44;14.50;99.90
16243;DHT22;11719;51.052;6.982;2023-04-01T13:29:38;14.60;99.90
16243;DHT22;11719;51.052;6.982;2023-04-01T13:35:19;14.60;99.90
16243;DHT22;11719;51.052;6.982;2023-04-01T13:38:02;14.60;99.90
16243;DHT22;11719;51.052;6.982;2023-04-01T13:43:36;14.50;99.90
16243;DHT22;11719;51.052;6.982;2023-04-01T14:03:30;13.90;99.90
16243;DHT22;11719;51.052;6.982;2023-04-01T14:12:26;14.30;99.90
16243;DHT22;11719;51.052;6.982;2023-04-01T14:17:58;14.50;99.90
16243;DHT22;11719;51.052;6.982;2023-04-01T14:45:26;14.60;99.90
16243;DHT22;11719;51.052;6.982;2023-04-01T14:51:31;14.60;99.90
16243;DHT22;11719;51.052;6.982;2023-04-01T14:54:30;14.40;99.90
16243;DHT22;11719;51.052;6.982;2023-04-01T14:57:24;14.40;99.90
16243;DHT22;11719;51.052;6.982;2023-04-01T15:08:00;14.30;99.90
16243;DHT22;11719;51.052;6.982;2023-04-01T15:19:18;14.00;99.90
16243;DHT22;11719;51.052;6.982;2023-04-01T15:28:04;14.00;99.90
16243;DHT22;11719;51.052;6.982;2023-04-01T15:31:23;14.00;99.90
16243;DHT22;11719;51.052;6.982;2023-04-01T15:34:30;14.00;99.90
16243;DHT22;11719;51.052;6.982;2023-04-01T15:37:25;13.80;99.90
16243;DHT22;11719;51.052;6.982;2023-04-01T16:03:34;13.70;99.90
16243;DHT22;11719;51.052;6.982;2023-04-01T16:23:58;13.70;99.90
16243;DHT22;11719;51.052;6.982;2023-04-01T16:37:59;14.30;99.90
16243;DHT22;11719;51.052;6.982;2023-04-01T16:43:52;14.20;99.90
16243;DHT22;11719;51.052;6.982;2023-04-01T16:46:34;14.10;99.90
16243;DHT22;11719;51.052;6.982;2023-04-01T16:49:36;14.20;99.90
16243;DHT22;11719;51.052;6.982;2023-04-01T16:54:57;14.00;99.90
16243;DHT22;11719;51.052;6.982;2023-04-01T16:57:36;13.90;99.90
16243;DHT22;11719;51.052;6.982;2023-04-01T17:00:27;13.80;99.90
16243;DHT22;11719;51.052;6.982;2023-04-01T17:05:59;13.80;99.90
16243;DHT22;11719;51.052;6.982;2023-04-01T17:11:23;14.00;99.90
16243;DHT22;11719;51.052;6.982;2023-04-01T17:22:55;14.20;99.90
16243;DHT22;11719;51.052;6.982;2023-04-01T17:43:25;14.30;99.90
16243;DHT22;11719;51.052;6.982;2023-04-01T17:46:01;14.40;99.90
16243;DHT22;11719;51.052;6.982;2023-04-01T18:06:01;14.40;99.90
16243;DHT22;11719;51.052;6.982;2023-04-01T18:09:01;14.20;99.90
16243;DHT22;11719;51.052;6.982;2023-04-01T18:17:25;13.80;99.90
16243;DHT22;11719;51.052;6.982;2023-04-01T18:23:30;13.90;99.90
16243;DHT22;11719;51.052;6.982;2023-04-01T18:26:12;13.90;99.90
16243;DHT22;11719;51.052;6.982;2023-04-01T18:28:56;13.70;99.90
16243;DHT22;11719;51.052;6.982;2023-04-01T18:31:31;13.70;99.90
16243;DHT22;11719;51.052;6.982;2023-04-01T18:37:02;13.50;99.90
16243;DHT22;11719;51.052;6.982;2023-04-01T18:40:45;13.40;99.90
16243;DHT22;11719;51.052;6.982;2023-04-01T18:45:57;13.60;99.90
16243;DHT22;11719;51.052;6.982;2023-04-01T19:00:46;14.60;99.90
16243;DHT22;11719;51.052;6.982;2023-04-01T19:05:54;14.50;99.90
16243;DHT22;11719;51.052;6.982;2023-04-01T19:17:35;14.70;99.90
16243;DHT22;11719;51.052;6.982;2023-04-01T19:25:30;14.50;99.90
16243;DHT22;11719;51.052;6.982;2023-04-01T19:40:23;14.80;99.90
16243;DHT22;11719;51.052;6.982;2023-04-01T19:43:18;14.70;99.90
16243;DHT22;11719;51.052;6.982;2023-04-01T19:48:54;14.70;99.90
16243;DHT22;11719;51.052;6.982;2023-04-01T19:51:41;14.70;99.90
16243;DHT22;11719;51.052;6.982;2023-04-01T19:57:35;14.50;99.90
16243;DHT22;11719;51.052;6.982;2023-04-01T20:03:54;14.60;99.90
16243;DHT22;11719;51.052;6.982;2023-04-01T20:11:59;14.60;99.90
16243;DHT22;11719;51.052;6.982;2023-04-01T20:17:19;14.70;99.90
16243;DHT22;11719;51.052;6.982;2023-04-01T20:45:42;14.50;99.90
16243;DHT22;11719;51.052;6.982;2023-04-01T20:51:05;14.40;99.90
16243;DHT22;11719;51.052;6.982;2023-04-01T20:56:40;14.40;99.90
16243;DHT22;11719;51.052;6.982;2023-04-01T20:59:55;14.30;99.90
16243;DHT22;11719;51.052;6.982;2023-04-01T21:02:48;14.10;99.90
16243;DHT22;11719;51.052;6.982;2023-04-01T21:23:51;14.00;99.90
16243;DHT22;11719;51.052;6.982;2023-04-01T21:26:42;13.90;99.90
16243;DHT22;11719;51.052;6.982;2023-04-01T21:41:20;13.40;99.90
16243;DHT22;11719;51.052;6.982;2023-04-01T21:47:03;13.50;99.90
16243;DHT22;11719;51.052;6.982;2023-04-01T22:03:21;13.40;99.90
16243;DHT22;11719;51.052;6.982;2023-04-01T22:10:59;13.30;99.90
16243;DHT22;11719;51.052;6.982;2023-04-01T22:22:16;13.40;99.90
16243;DHT22;11719;51.052;6.982;2023-04-01T22:25:05;13.40;99.90
16243;DHT22;11719;51.052;6.982;2023-04-01T22:38:53;13.70;99.90
16243;DHT22;11719;51.052;6.982;2023-04-01T22:41:40;13.80;99.90
16243;DHT22;11719;51.052;6.982;2023-04-01T22:47:34;14.00;99.90
16243;DHT22;11719;51.052;6.982;2023-04-01T22:50:24;14.20;99.90
16243;DHT22;11719;51.052;6.982;2023-04-01T22:56:22;14.20;99.90
16243;DHT22;11719;51.052;6.982;2023-04-01T22:59:14;14.20;99.90
16243;DHT22;11719;51.052;6.982;2023-04-01T23:02:04;14.20;99.90
16243;DHT22;11719;51.052;6.982;2023-04-01T23:04:39;14.30;99.90
16243;DHT22;11719;51.052;6.982;2023-04-01T23:10:28;14.20;99.90
16243;DHT22;11719;51.052;6.982;2023-04-01T23:13:03;14.20;99.90
16243;DHT22;11719;51.052;6.982;2023-04-01T23:15:32;14.20;99.90
16243;DHT22;11719;51.052;6.982;2023-04-01T23:18:11;14.20;99.90
16243;DHT22;11719;51.052;6.982;2023-04-01T23:21:01;14.30;99.90
16243;DHT22;11719;51.052;6.982;2023-04-01T23:29:41;15.10;99.90
16243;DHT22;11719;51.052;6.982;2023-04-01T23:32:22;15.20;99.90
16243;DHT22;11719;51.052;6.982;2023-04-01T23:34:56;15.40;99.90
16243;DHT22;11719;51.052;6.982;2023-04-01T23:37:24;15.60;99.90
16243;DHT22;11719;51.052;6.982;2023-04-01T23:39:51;15.80;99.90
16243;DHT22;11719;51.052;6.982;2023-04-01T23:45:14;16.00;99.90
16243;DHT22;11719;51.052;6.982;2023-04-01T23:47:46;16.10;99.90
16243;DHT22;11719;51.052;6.982;2023-04-01T23:50:18;16.20;99.90
16243;DHT22;11719;51.052;6.982;2023-04-01T23:53:00;16.20;99.90
16243;DHT22;11719;51.052;6.982;2023-04-01T23:55:32;16.10;99.90
